createdAt,value
2018-03-21T00:00:30.369Z,-0.30
2018-03-21T00:02:56.524Z,-0.30
2018-03-21T00:05:23.374Z,-0.20
2018-03-21T00:07:50.281Z,-0.20
2018-03-21T00:10:16.452Z,-0.30
2018-03-21T00:12:43.316Z,-0.30
2018-03-21T00:15:09.568Z,-0.30
2018-03-21T00:17:35.761Z,-0.30
2018-03-21T00:20:02.670Z,-0.40
2018-03-21T00:22:28.844Z,-0.40
2018-03-21T00:24:55.021Z,-0.50
2018-03-21T00:27:21.153Z,-0.60
2018-03-21T00:29:47.328Z,-0.60
2018-03-21T00:32:13.448Z,-0.70
2018-03-21T00:34:40.356Z,-0.80
2018-03-21T00:37:06.529Z,-0.80
2018-03-21T00:39:32.676Z,-0.80
2018-03-21T00:41:58.852Z,-0.90
2018-03-21T00:44:25.769Z,-1.00
2018-03-21T00:46:51.881Z,-1.00
2018-03-21T00:49:18.053Z,-1.10
2018-03-21T00:51:44.941Z,-1.00
2018-03-21T00:54:11.104Z,-1.00
2018-03-21T00:56:37.312Z,-1.00
2018-03-21T00:59:03.448Z,-1.20
2018-03-21T01:01:29.585Z,-1.10
2018-03-21T01:03:55.719Z,-1.10
2018-03-21T01:06:21.862Z,-1.10
2018-03-21T01:08:48.777Z,-1.00
2018-03-21T01:11:14.931Z,-1.00
2018-03-21T01:13:41.828Z,-0.90
2018-03-21T01:16:08.039Z,-0.90
2018-03-21T01:18:34.202Z,-0.90
2018-03-21T01:21:00.339Z,-0.80
2018-03-21T01:23:26.550Z,-0.90
2018-03-21T01:25:52.740Z,-1.00
2018-03-21T01:28:18.917Z,-0.90
2018-03-21T01:30:45.054Z,-1.00
2018-03-21T01:33:11.944Z,-1.20
2018-03-21T01:35:38.139Z,-1.20
2018-03-21T01:38:05.053Z,-1.10
2018-03-21T01:40:31.225Z,-1.10
2018-03-21T01:42:57.402Z,-1.20
2018-03-21T01:45:23.545Z,-1.30
2018-03-21T01:47:49.697Z,-1.30
2018-03-21T01:50:15.877Z,-1.30
2018-03-21T01:52:42.027Z,-1.40
2018-03-21T01:55:08.902Z,-1.40
2018-03-21T01:57:35.078Z,-1.40
2018-03-21T02:00:01.276Z,-1.40
2018-03-21T02:02:27.466Z,-1.50
2018-03-21T02:04:54.399Z,-1.50
2018-03-21T02:07:21.343Z,-1.50
2018-03-21T02:09:47.511Z,-1.50
2018-03-21T02:12:13.705Z,-1.50
2018-03-21T02:14:40.606Z,-1.60
2018-03-21T02:17:06.741Z,-1.60
2018-03-21T02:19:32.913Z,-1.60
2018-03-21T02:21:59.775Z,-1.70
2018-03-21T02:24:25.958Z,-1.70
2018-03-21T02:26:52.828Z,-1.60
2018-03-21T02:29:19.670Z,-1.50
2018-03-21T02:31:46.585Z,-1.60
2018-03-21T02:34:12.741Z,-1.60
2018-03-21T02:36:39.641Z,-1.70
2018-03-21T02:39:05.763Z,-1.70
2018-03-21T02:41:31.976Z,-1.80
2018-03-21T02:43:58.173Z,-1.70
2018-03-21T02:46:24.355Z,-1.60
2018-03-21T02:48:51.251Z,-1.70
2018-03-21T02:51:17.452Z,-1.70
2018-03-21T02:53:44.364Z,-1.60
2018-03-21T02:56:10.573Z,-1.60
2018-03-21T02:58:36.742Z,-1.70
2018-03-21T03:01:02.881Z,-1.80
2018-03-21T03:03:29.800Z,-1.90
2018-03-21T03:05:56.705Z,-1.80
2018-03-21T03:08:22.893Z,-1.80
2018-03-21T03:10:49.745Z,-1.80
2018-03-21T03:13:16.648Z,-1.90
2018-03-21T03:15:42.825Z,-1.90
2018-03-21T03:18:08.932Z,-1.80
2018-03-21T03:20:35.847Z,-1.90
2018-03-21T03:23:01.965Z,-2.00
2018-03-21T03:25:28.162Z,-2.10
2018-03-21T03:27:54.356Z,-2.00
2018-03-21T03:30:21.279Z,-1.90
2018-03-21T03:32:47.464Z,-2.00
2018-03-21T03:35:13.647Z,-1.90
2018-03-21T03:37:40.530Z,-1.80
2018-03-21T03:40:06.739Z,-1.80
2018-03-21T03:42:33.680Z,-1.90
2018-03-21T03:45:00.614Z,-2.00
2018-03-21T03:47:26.742Z,-2.00
2018-03-21T03:49:53.629Z,-2.00
2018-03-21T03:52:19.788Z,-2.00
2018-03-21T03:54:45.912Z,-1.90
2018-03-21T03:57:12.068Z,-1.90
2018-03-21T03:59:38.985Z,-1.90
2018-03-21T04:02:05.173Z,-1.90
2018-03-21T04:04:31.351Z,-1.90
2018-03-21T04:06:58.292Z,-2.00
2018-03-21T04:09:24.452Z,-2.00
2018-03-21T04:11:51.356Z,-2.00
2018-03-21T04:14:17.506Z,-2.00
2018-03-21T04:16:44.646Z,-1.90
2018-03-21T04:19:11.554Z,-2.00
2018-03-21T04:21:37.690Z,-2.00
2018-03-21T04:24:03.828Z,-2.00
2018-03-21T04:26:29.987Z,-2.00
2018-03-21T04:28:56.875Z,-2.00
2018-03-21T04:31:23.047Z,-2.00
2018-03-21T04:33:49.971Z,-2.10
2018-03-21T04:36:16.138Z,-2.10
2018-03-21T04:38:43.063Z,-2.10
2018-03-21T04:43:42.844Z,-2.20
2018-03-21T04:46:09.068Z,-2.20
2018-03-21T04:48:35.232Z,-2.20
2018-03-21T04:51:01.442Z,-2.20
2018-03-21T04:53:27.567Z,-2.20
2018-03-21T04:55:53.725Z,-2.20
2018-03-21T04:58:19.901Z,-2.30
2018-03-21T05:00:46.067Z,-2.30
2018-03-21T05:03:12.261Z,-2.30
2018-03-21T05:05:38.360Z,-2.30
2018-03-21T05:08:05.220Z,-2.40
2018-03-21T05:10:31.364Z,-2.40
2018-03-21T05:12:57.490Z,-2.60
2018-03-21T05:15:23.654Z,-2.50
2018-03-21T05:17:49.780Z,-2.60
2018-03-21T05:20:15.932Z,-2.60
2018-03-21T05:22:43.717Z,-2.50
2018-03-21T05:25:09.818Z,-2.60
2018-03-21T05:27:36.677Z,-2.60
2018-03-21T05:30:02.871Z,-2.60
2018-03-21T05:32:29.749Z,-2.40
2018-03-21T05:34:55.909Z,-2.40
2018-03-21T05:37:22.064Z,-2.40
2018-03-21T05:39:48.196Z,-2.40
2018-03-21T05:42:15.072Z,-2.30
2018-03-21T05:44:41.242Z,-2.30
2018-03-21T05:47:07.358Z,-2.40
2018-03-21T05:49:33.768Z,-2.30
2018-03-21T05:51:59.963Z,-2.30
2018-03-21T05:54:26.887Z,-2.10
2018-03-21T05:56:53.762Z,-2.00
2018-03-21T05:59:19.864Z,-2.00
2018-03-21T06:01:46.786Z,-1.90
2018-03-21T06:04:12.938Z,-1.90
2018-03-21T06:06:39.847Z,-2.00
2018-03-21T06:09:06.047Z,-2.00
2018-03-21T06:11:32.219Z,-1.90
2018-03-21T06:13:59.149Z,-1.70
2018-03-21T06:16:25.312Z,-1.70
2018-03-21T06:18:52.188Z,-1.60
2018-03-21T06:21:18.322Z,-1.60
2018-03-21T06:23:44.509Z,-1.60
2018-03-21T06:26:11.441Z,-1.50
2018-03-21T06:28:38.343Z,-1.40
2018-03-21T06:31:04.521Z,-1.40
2018-03-21T06:33:31.457Z,-1.40
2018-03-21T06:35:58.403Z,-1.30
2018-03-21T06:38:25.336Z,-1.10
2018-03-21T06:40:52.305Z,-1.10
2018-03-21T06:43:19.258Z,-1.00
2018-03-21T06:45:46.142Z,-1.00
2018-03-21T06:48:12.317Z,-1.00
2018-03-21T06:50:39.183Z,-0.80
2018-03-21T06:53:05.340Z,-0.80
2018-03-21T06:55:31.473Z,-0.80
2018-03-21T06:57:57.602Z,-0.70
2018-03-21T07:00:23.813Z,-0.60
2018-03-21T07:02:49.998Z,-0.60
2018-03-21T07:05:16.925Z,-0.30
2018-03-21T07:07:43.825Z,-0.10
2018-03-21T07:10:09.934Z,-0.10
2018-03-21T07:12:36.070Z,0.00
2018-03-21T07:15:14.648Z,0.30
2018-03-21T07:17:41.541Z,0.30
2018-03-21T07:20:07.650Z,0.30
2018-03-21T07:22:33.841Z,0.40
2018-03-21T07:25:00.064Z,0.40
2018-03-21T07:27:26.929Z,0.80
2018-03-21T07:29:53.819Z,0.90
2018-03-21T07:32:20.024Z,0.90
2018-03-21T07:34:46.231Z,1.10
2018-03-21T07:37:13.132Z,1.20
2018-03-21T07:39:39.360Z,1.20
2018-03-21T07:42:12.433Z,1.60
2018-03-21T07:44:38.589Z,1.70
2018-03-21T07:47:04.754Z,1.40
2018-03-21T07:49:30.856Z,1.70
2018-03-21T07:51:57.771Z,1.40
2018-03-21T07:54:24.960Z,1.40
2018-03-21T07:56:51.922Z,1.60
2018-03-21T07:59:18.061Z,1.60
2018-03-21T08:01:44.209Z,1.50
2018-03-21T08:04:10.457Z,1.70
2018-03-21T08:06:36.596Z,1.80
2018-03-21T08:09:03.516Z,2.00
2018-03-21T08:11:29.647Z,2.00
2018-03-21T08:13:55.782Z,2.20
2018-03-21T08:16:21.964Z,2.10
2018-03-21T08:18:48.113Z,2.10
2018-03-21T08:21:14.363Z,2.00
2018-03-21T08:23:40.693Z,2.30
2018-03-21T08:26:06.869Z,2.50
2018-03-21T08:28:33.031Z,2.80
2018-03-21T08:30:59.204Z,2.40
2018-03-21T08:33:25.298Z,2.40
2018-03-21T08:35:51.764Z,2.00
2018-03-21T08:38:18.668Z,2.40
2018-03-21T08:40:44.821Z,2.40
2018-03-21T08:43:11.687Z,2.10
2018-03-21T08:45:37.803Z,2.50
2018-03-21T08:48:04.691Z,2.90
2018-03-21T08:50:31.719Z,2.90
2018-03-21T08:52:57.916Z,3.10
2018-03-21T08:55:24.772Z,3.40
2018-03-21T08:57:51.777Z,3.70
2018-03-21T09:00:17.888Z,3.70
2018-03-21T09:02:43.995Z,4.10
2018-03-21T09:05:10.166Z,4.50
2018-03-21T09:07:36.365Z,4.60
2018-03-21T09:10:02.512Z,4.50
2018-03-21T09:12:28.693Z,4.20
2018-03-21T09:14:54.825Z,4.20
2018-03-21T09:17:21.007Z,4.10
2018-03-21T09:19:47.837Z,5.20
2018-03-21T09:22:13.950Z,5.20
2018-03-21T09:24:40.073Z,5.50
2018-03-21T09:27:06.193Z,5.60
2018-03-21T09:29:32.370Z,5.60
2018-03-21T09:31:59.302Z,5.80
2018-03-21T09:34:26.216Z,5.60
2018-03-21T09:36:52.335Z,5.60
2018-03-21T09:39:18.535Z,5.60
2018-03-21T09:41:44.684Z,5.50
2018-03-21T09:44:10.788Z,6.00
2018-03-21T09:46:36.942Z,6.20
2018-03-21T09:49:03.120Z,6.20
2018-03-21T09:51:30.048Z,5.60
2018-03-21T09:53:56.238Z,5.60
2018-03-21T09:56:22.393Z,5.20
2018-03-21T09:58:48.563Z,5.80
2018-03-21T10:01:14.748Z,6.10
2018-03-21T10:03:41.664Z,6.50
2018-03-21T10:06:07.842Z,6.50
2018-03-21T10:08:34.739Z,6.40
2018-03-21T10:11:00.887Z,6.40
2018-03-21T10:13:27.797Z,6.90
2018-03-21T10:15:53.975Z,6.80
2018-03-21T10:18:20.909Z,7.20
2018-03-21T10:20:47.041Z,7.20
2018-03-21T10:23:13.201Z,7.50
2018-03-21T10:25:39.359Z,7.50
2018-03-21T10:28:05.493Z,7.60
2018-03-21T10:30:31.671Z,7.50
2018-03-21T10:32:57.805Z,7.40
2018-03-21T10:35:23.985Z,7.20
2018-03-21T10:37:50.102Z,7.30
2018-03-21T10:40:16.342Z,7.60
2018-03-21T10:42:42.512Z,7.70
2018-03-21T10:45:08.714Z,7.50
2018-03-21T10:47:42.613Z,7.90
2018-03-21T10:50:08.758Z,7.90
2018-03-21T10:52:38.915Z,7.60
2018-03-21T10:55:02.666Z,7.80
2018-03-21T10:57:28.876Z,7.80
2018-03-21T10:59:55.773Z,7.90
2018-03-21T11:02:21.958Z,7.90
2018-03-21T11:04:48.105Z,8.10
2018-03-21T11:07:14.230Z,7.90
2018-03-21T11:09:40.377Z,7.60
2018-03-21T11:12:06.530Z,7.50
2018-03-21T11:14:32.689Z,7.80
2018-03-21T11:16:58.872Z,7.50
2018-03-21T11:19:25.783Z,8.70
2018-03-21T11:21:51.938Z,8.70
2018-03-21T11:24:18.036Z,9.00
2018-03-21T11:26:44.262Z,8.80
2018-03-21T11:29:10.408Z,8.30
2018-03-21T11:31:36.569Z,7.90
2018-03-21T11:34:03.524Z,7.40
2018-03-21T11:36:30.390Z,8.20
2018-03-21T11:38:56.599Z,8.10
2018-03-21T11:41:22.746Z,8.30
2018-03-21T11:43:48.994Z,8.40
2018-03-21T11:46:15.736Z,8.50
2018-03-21T11:48:41.899Z,8.60
2018-03-21T11:51:08.057Z,8.70
2018-03-21T11:53:34.961Z,8.30
2018-03-21T11:56:01.178Z,8.30
2018-03-21T11:58:27.293Z,8.50
2018-03-21T12:00:53.470Z,8.80
2018-03-21T12:03:20.366Z,9.20
2018-03-21T12:05:46.678Z,9.20
2018-03-21T12:08:12.862Z,8.80
2018-03-21T12:10:39.169Z,8.40
2018-03-21T12:13:05.366Z,8.60
2018-03-21T12:15:31.518Z,8.90
2018-03-21T12:17:57.704Z,8.60
2018-03-21T12:20:23.801Z,9.40
2018-03-21T12:22:50.719Z,10.10
2018-03-21T12:25:16.868Z,10.10
2018-03-21T12:27:43.056Z,9.70
2018-03-21T12:30:09.262Z,9.70
2018-03-21T12:32:35.405Z,10.00
2018-03-21T12:35:01.637Z,10.40
2018-03-21T12:37:27.802Z,10.20
2018-03-21T12:39:53.972Z,10.30
2018-03-21T12:42:20.144Z,10.30
2018-03-21T12:44:46.356Z,10.20
2018-03-21T12:47:12.427Z,10.40
2018-03-21T12:49:39.382Z,10.30
2018-03-21T12:52:05.497Z,10.20
2018-03-21T12:54:32.376Z,8.30
2018-03-21T12:56:58.490Z,8.20
2018-03-21T12:59:24.739Z,8.40
2018-03-21T13:01:50.984Z,9.10
2018-03-21T13:04:17.164Z,9.20
2018-03-21T13:06:43.370Z,9.00
2018-03-21T13:09:10.323Z,9.40
2018-03-21T13:11:37.218Z,9.30
2018-03-21T13:14:03.409Z,9.30
2018-03-21T13:16:29.585Z,9.80
2018-03-21T13:18:55.752Z,10.20
2018-03-21T13:21:22.594Z,10.40
2018-03-21T13:23:49.516Z,10.40
2018-03-21T13:26:15.675Z,10.40
2018-03-21T13:28:41.842Z,10.50
2018-03-21T13:31:07.952Z,10.60
2018-03-21T13:33:34.059Z,10.90
2018-03-21T13:36:00.216Z,11.10
2018-03-21T13:38:26.430Z,11.20
2018-03-21T13:40:52.618Z,11.40
2018-03-21T13:43:19.565Z,11.30
2018-03-21T13:45:46.479Z,11.30
2018-03-21T13:48:12.674Z,11.30
2018-03-21T13:50:38.861Z,11.50
2018-03-21T13:53:05.803Z,11.00
2018-03-21T13:55:32.655Z,10.10
2018-03-21T13:57:59.581Z,10.30
2018-03-21T14:00:25.735Z,10.40
2018-03-21T14:02:51.932Z,10.60
2018-03-21T14:05:18.058Z,10.60
2018-03-21T14:07:44.264Z,10.90
2018-03-21T14:10:10.428Z,10.70
2018-03-21T14:12:37.324Z,11.30
2018-03-21T14:15:03.547Z,11.30
2018-03-21T14:17:29.695Z,11.30
2018-03-21T14:19:55.834Z,11.50
2018-03-21T14:22:21.998Z,11.30
2018-03-21T14:24:48.897Z,11.40
2018-03-21T14:27:15.092Z,11.40
2018-03-21T14:29:41.215Z,11.20
2018-03-21T14:32:07.404Z,11.10
2018-03-21T14:34:34.340Z,11.30
2018-03-21T14:37:01.281Z,11.70
2018-03-21T14:39:27.443Z,11.70
2018-03-21T14:41:53.672Z,12.40
2018-03-21T14:44:19.857Z,12.90
2018-03-21T14:46:46.026Z,13.70
2018-03-21T14:49:12.173Z,14.40
2018-03-21T14:51:38.293Z,15.40
2018-03-21T14:54:04.418Z,16.30
2018-03-21T14:56:30.626Z,17.20
2018-03-21T14:58:56.828Z,18.70
2018-03-21T15:01:23.712Z,17.90
2018-03-21T15:03:49.930Z,17.90
2018-03-21T15:06:16.060Z,16.80
2018-03-21T15:08:42.203Z,15.10
2018-03-21T15:11:08.369Z,14.00
2018-03-21T15:13:34.517Z,13.00
2018-03-21T15:16:01.413Z,11.80
2018-03-21T15:18:27.602Z,11.80
2018-03-21T15:20:53.752Z,11.10
2018-03-21T15:23:19.932Z,10.90
2018-03-21T15:25:46.900Z,10.40
2018-03-21T15:28:13.022Z,10.40
2018-03-21T15:30:39.176Z,9.90
2018-03-21T15:33:05.369Z,9.50
2018-03-21T15:35:32.322Z,8.80
2018-03-21T15:37:58.497Z,8.80
2018-03-21T15:40:24.605Z,8.90
2018-03-21T15:42:50.833Z,8.80
2018-03-21T15:45:16.971Z,8.70
2018-03-21T15:47:43.105Z,8.30
2018-03-21T15:50:09.292Z,8.30
2018-03-21T15:52:35.452Z,8.30
2018-03-21T15:55:01.605Z,8.50
2018-03-21T15:57:27.796Z,8.40
2018-03-21T15:59:53.985Z,8.10
2018-03-21T16:02:20.953Z,7.90
2018-03-21T16:04:47.120Z,7.80
2018-03-21T16:07:13.292Z,7.60
2018-03-21T16:09:40.173Z,7.40
2018-03-21T16:12:06.332Z,7.30
2018-03-21T16:14:33.258Z,7.10
2018-03-21T16:17:00.189Z,7.00
2018-03-21T16:19:26.376Z,6.90
2018-03-21T16:21:52.477Z,6.90
2018-03-21T16:24:19.409Z,6.70
2018-03-21T16:26:45.584Z,6.70
2018-03-21T16:29:11.793Z,6.60
2018-03-21T16:31:38.704Z,6.50
2018-03-21T16:34:04.838Z,6.50
2018-03-21T16:36:31.768Z,6.30
2018-03-21T16:38:57.878Z,6.30
2018-03-21T16:41:24.061Z,6.20
2018-03-21T16:43:50.952Z,5.90
2018-03-21T16:46:17.125Z,5.80
2018-03-21T16:48:44.053Z,5.90
2018-03-21T16:51:10.217Z,5.90
2018-03-21T16:53:36.391Z,6.00
2018-03-21T16:56:02.553Z,6.10
2018-03-21T16:58:29.474Z,5.90
2018-03-21T17:00:55.598Z,5.80
2018-03-21T17:03:21.787Z,5.80
2018-03-21T17:05:47.941Z,5.80
2018-03-21T17:08:21.101Z,5.80
2018-03-21T17:10:47.300Z,5.70
2018-03-21T17:13:14.154Z,5.60
2018-03-21T17:15:40.405Z,5.50
2018-03-21T17:18:06.591Z,5.50
2018-03-21T17:20:32.800Z,5.30
2018-03-21T17:22:58.996Z,5.20
2018-03-21T17:25:25.188Z,5.30
2018-03-21T17:27:52.069Z,5.00
2018-03-21T17:30:18.253Z,5.00
2018-03-21T17:32:45.159Z,4.80
2018-03-21T17:35:11.333Z,4.80
2018-03-21T17:37:38.256Z,4.70
2018-03-21T17:40:05.119Z,4.50
2018-03-21T17:42:31.295Z,4.50
2018-03-21T17:44:57.457Z,4.50
2018-03-21T17:47:24.333Z,4.20
2018-03-21T17:49:50.459Z,4.20
2018-03-21T17:52:16.670Z,4.00
2018-03-21T17:54:43.588Z,4.10
2018-03-21T17:57:09.725Z,4.10
2018-03-21T17:59:36.701Z,3.70
2018-03-21T18:02:02.954Z,3.60
2018-03-21T18:04:29.062Z,3.60
2018-03-21T18:06:55.213Z,3.40
2018-03-21T18:09:21.368Z,3.10
2018-03-21T18:11:47.554Z,3.00
2018-03-21T18:14:13.709Z,3.10
2018-03-21T18:16:39.929Z,3.10
2018-03-21T18:19:06.096Z,3.10
2018-03-21T18:21:33.032Z,3.20
2018-03-21T18:23:59.945Z,3.20
2018-03-21T18:26:26.058Z,3.20
2018-03-21T18:28:52.184Z,3.20
2018-03-21T18:31:18.377Z,3.10
2018-03-21T18:33:44.528Z,3.00
2018-03-21T18:36:10.625Z,2.80
2018-03-21T18:38:37.511Z,2.50
2018-03-21T18:41:03.725Z,2.50
2018-03-21T18:43:29.928Z,2.50
2018-03-21T18:45:56.158Z,2.30
2018-03-21T18:48:23.064Z,2.20
2018-03-21T18:50:49.222Z,2.20
2018-03-21T18:53:15.379Z,2.20
2018-03-21T18:55:41.554Z,2.10
2018-03-21T18:58:07.728Z,2.10
2018-03-21T19:00:33.896Z,2.20
2018-03-21T19:03:00.044Z,2.10
2018-03-21T19:05:26.948Z,2.00
2018-03-21T19:07:53.137Z,2.00
2018-03-21T19:10:19.275Z,2.00
2018-03-21T19:12:45.458Z,1.90
2018-03-21T19:15:12.392Z,1.50
2018-03-21T19:17:38.575Z,1.50
2018-03-21T19:20:04.800Z,1.40
2018-03-21T19:22:30.922Z,1.30
2018-03-21T19:24:57.080Z,1.20
2018-03-21T19:27:23.302Z,1.10
2018-03-21T19:29:49.482Z,1.10
2018-03-21T19:32:16.360Z,1.10
2018-03-21T19:34:42.536Z,1.00
2018-03-21T19:37:09.423Z,1.10
2018-03-21T19:39:35.614Z,1.00
2018-03-21T19:42:02.570Z,0.80
2018-03-21T19:44:29.514Z,0.70
2018-03-21T19:46:55.682Z,0.70
2018-03-21T19:49:21.794Z,0.70
2018-03-21T19:51:48.000Z,0.60
2018-03-21T19:54:14.168Z,0.70
2018-03-21T19:56:40.337Z,0.70
2018-03-21T19:59:07.331Z,0.50
2018-03-21T20:01:33.507Z,0.40
2018-03-21T20:04:00.398Z,0.40
2018-03-21T20:06:26.531Z,0.30
2018-03-21T20:08:52.706Z,0.40
2018-03-21T20:11:18.898Z,0.40
2018-03-21T20:13:45.126Z,0.30
2018-03-21T20:16:11.301Z,0.30
2018-03-21T20:18:38.201Z,0.30
2018-03-21T20:21:04.366Z,0.20
2018-03-21T20:23:31.301Z,0.20
2018-03-21T20:25:58.192Z,0.20
2018-03-21T20:28:24.354Z,0.20
2018-03-21T20:30:50.512Z,0.20
2018-03-21T20:33:17.414Z,0.20
2018-03-21T20:35:43.563Z,0.20
2018-03-21T20:38:09.764Z,0.20
2018-03-21T20:40:35.934Z,0.10
2018-03-21T20:43:02.861Z,0.20
2018-03-21T20:45:29.037Z,0.20
2018-03-21T20:47:55.208Z,0.10
2018-03-21T20:50:21.353Z,0.10
2018-03-21T20:52:47.502Z,0.10
2018-03-21T20:55:13.635Z,-0.10
2018-03-21T20:57:39.737Z,-0.10
2018-03-21T21:00:06.693Z,0.00
2018-03-21T21:02:32.842Z,-0.10
2018-03-21T21:04:59.057Z,0.00
2018-03-21T21:07:25.173Z,0.00
2018-03-21T21:09:52.145Z,-0.20
2018-03-21T21:12:18.245Z,-0.20
2018-03-21T21:14:45.129Z,-0.30
2018-03-21T21:17:11.315Z,-0.30
2018-03-21T21:19:38.235Z,-0.30
2018-03-21T21:22:04.377Z,-0.30
2018-03-21T21:24:31.340Z,-0.50
2018-03-21T21:26:57.539Z,-0.60
2018-03-21T21:29:24.461Z,-0.40
2018-03-21T21:31:50.661Z,-0.40
2018-03-21T21:34:16.839Z,-0.50
2018-03-21T21:36:43.805Z,-0.70
2018-03-21T21:39:09.997Z,-0.70
2018-03-21T21:41:36.268Z,-0.50
2018-03-21T21:44:02.492Z,-0.50
2018-03-21T21:46:28.640Z,-0.50
2018-03-21T21:48:54.794Z,-0.40
2018-03-21T21:51:20.990Z,-0.50
2018-03-21T21:53:47.156Z,-0.50
2018-03-21T21:56:13.345Z,-0.60
2018-03-21T21:58:39.524Z,-0.70
2018-03-21T22:01:05.632Z,-0.50
2018-03-21T22:03:31.820Z,-0.60
2018-03-21T22:05:57.979Z,-0.40
2018-03-21T22:08:24.166Z,-0.40
2018-03-21T22:10:50.312Z,-0.40
2018-03-21T22:13:16.520Z,-0.40
2018-03-21T22:15:42.692Z,-0.50
2018-03-21T22:18:08.897Z,-0.60
2018-03-21T22:20:35.038Z,-0.70
2018-03-21T22:23:01.207Z,-0.90
2018-03-21T22:25:28.181Z,-0.90
2018-03-21T22:27:54.306Z,-0.90
2018-03-21T22:30:20.460Z,-1.00
2018-03-21T22:32:46.624Z,-1.00
2018-03-21T22:35:13.499Z,-0.70
2018-03-21T22:37:39.617Z,-0.80
2018-03-21T22:40:06.554Z,-0.90
2018-03-21T22:42:32.710Z,-0.90
2018-03-21T22:44:58.834Z,-0.90
2018-03-21T22:47:24.937Z,-1.00
2018-03-21T22:49:51.851Z,-1.20
2018-03-21T22:52:18.016Z,-1.20
2018-03-21T22:54:44.208Z,-1.20
2018-03-21T22:57:10.339Z,-1.30
2018-03-21T22:59:36.511Z,-1.30
2018-03-21T23:02:02.689Z,-1.50
2018-03-21T23:04:28.848Z,-1.40
2018-03-21T23:06:54.969Z,-1.50
2018-03-21T23:09:21.821Z,-1.50
2018-03-21T23:11:47.982Z,-1.50
2018-03-21T23:14:14.117Z,-1.50
2018-03-21T23:16:40.220Z,-1.50
2018-03-21T23:19:06.361Z,-1.40
2018-03-21T23:21:32.505Z,-1.30
2018-03-21T23:23:58.688Z,-1.20
2018-03-21T23:26:24.819Z,-1.50
2018-03-21T23:28:51.012Z,-1.50
2018-03-21T23:31:17.981Z,-1.40
2018-03-21T23:33:44.180Z,-1.40
2018-03-21T23:36:11.125Z,-1.50
2018-03-21T23:38:37.261Z,-1.50
2018-03-21T23:41:04.180Z,-1.50
2018-03-21T23:43:30.375Z,-1.50
2018-03-21T23:45:56.498Z,-1.50
2018-03-21T23:48:22.657Z,-1.50
2018-03-21T23:50:48.791Z,-1.50
2018-03-21T23:53:14.917Z,-1.50
2018-03-21T23:55:41.099Z,-1.50
2018-03-21T23:58:07.256Z,-1.50
